createdAt,value
2023-05-21T00:03:49.905Z,101405.80
2023-05-21T00:08:51.921Z,101397.60
2023-05-21T00:13:53.717Z,101389.40
2023-05-21T00:18:57.853Z,101389.00
2023-05-21T00:23:59.707Z,101391.00
2023-05-21T00:29:01.501Z,101399.60
2023-05-21T00:34:03.354Z,101406.20
2023-05-21T00:39:05.444Z,101407.00
2023-05-21T00:44:07.211Z,101403.40
2023-05-21T00:49:10.832Z,101400.80
2023-05-21T00:54:12.833Z,101399.40
2023-05-21T00:59:16.424Z,101398.00
2023-05-21T01:04:20.057Z,101397.80
2023-05-21T01:09:22.127Z,101392.60
2023-05-21T01:14:25.126Z,101393.60
2023-05-21T01:19:28.118Z,101391.40
2023-05-21T01:24:31.035Z,101386.80
2023-05-21T01:29:33.845Z,101380.80
2023-05-21T01:34:57.438Z,101377.20
2023-05-21T01:40:16.024Z,101376.20
2023-05-21T01:45:19.584Z,101376.00
2023-05-21T01:50:24.615Z,101380.00
2023-05-21T01:55:27.806Z,101380.60
2023-05-21T02:00:31.998Z,101384.40
2023-05-21T02:05:35.217Z,101383.80
2023-05-21T02:10:37.350Z,101380.20
2023-05-21T02:15:39.902Z,101368.80
2023-05-21T02:20:45.157Z,101371.20
2023-05-21T02:25:47.029Z,101372.60
2023-05-21T02:30:49.144Z,101373.60
2023-05-21T02:35:51.199Z,101366.20
2023-05-21T02:40:53.118Z,101367.40
2023-05-21T02:45:55.024Z,101377.60
2023-05-21T02:50:57.744Z,101380.40
2023-05-21T02:55:59.646Z,101374.00
2023-05-21T03:01:01.544Z,101372.40
2023-05-21T03:06:03.692Z,101370.40
2023-05-21T03:11:05.589Z,101368.80
2023-05-21T03:16:07.538Z,101373.80
2023-05-21T03:21:09.422Z,101369.00
2023-05-21T03:26:13.752Z,101372.20
2023-05-21T03:31:15.632Z,101372.80
2023-05-21T03:36:17.656Z,101367.40
2023-05-21T03:41:20.944Z,101362.00
2023-05-21T03:46:22.962Z,101354.00
2023-05-21T03:51:25.201Z,101347.40
2023-05-21T03:56:26.970Z,101340.60
2023-05-21T04:01:29.049Z,101341.40
2023-05-21T04:06:30.835Z,101347.60
2023-05-21T04:11:33.130Z,101343.60
2023-05-21T04:16:35.141Z,101344.20
2023-05-21T04:21:37.303Z,101345.20
2023-05-21T04:26:41.713Z,101356.80
2023-05-21T04:31:44.227Z,101357.60
2023-05-21T04:36:46.330Z,101349.20
2023-05-21T04:41:50.426Z,101350.40
2023-05-21T04:46:52.562Z,101336.00
2023-05-21T04:51:54.787Z,101336.60
2023-05-21T04:56:57.797Z,101336.60
2023-05-21T05:02:00.124Z,101339.60
2023-05-21T05:07:01.961Z,101338.60
2023-05-21T05:12:04.762Z,101337.20
2023-05-21T05:17:09.602Z,101344.00
2023-05-21T05:22:13.431Z,101340.80
2023-05-21T05:27:15.637Z,101348.00
2023-05-21T05:32:17.489Z,101345.20
2023-05-21T05:37:19.376Z,101347.20
2023-05-21T05:42:21.245Z,101340.60
2023-05-21T05:47:23.553Z,101336.80
2023-05-21T05:52:25.418Z,101337.60
2023-05-21T05:57:27.334Z,101332.60
2023-05-21T06:02:29.266Z,101331.80
2023-05-21T06:07:31.165Z,101329.60
2023-05-21T06:12:33.329Z,101327.40
2023-05-21T06:17:35.265Z,101329.20
2023-05-21T06:22:37.699Z,101318.60
2023-05-21T06:27:39.465Z,101320.60
2023-05-21T06:32:42.478Z,101320.00
2023-05-21T06:37:44.866Z,101319.00
2023-05-21T06:42:46.846Z,101316.00
2023-05-21T06:47:48.861Z,101313.80
2023-05-21T06:52:51.059Z,101314.80
2023-05-21T06:57:52.885Z,101310.40
2023-05-21T07:02:54.826Z,101313.00
2023-05-21T07:07:56.969Z,101305.60
2023-05-21T07:12:58.826Z,101301.60
2023-05-21T07:18:00.734Z,101299.00
2023-05-21T07:23:02.897Z,101303.80
2023-05-21T07:28:06.657Z,101307.20
2023-05-21T07:33:08.882Z,101309.40
2023-05-21T07:38:11.300Z,101307.40
2023-05-21T07:43:13.374Z,101310.40
2023-05-21T07:48:15.348Z,101310.40
2023-05-21T07:53:17.224Z,101305.40
2023-05-21T07:58:19.932Z,101309.40
2023-05-21T08:03:22.603Z,101301.80
2023-05-21T08:08:26.142Z,101298.80
2023-05-21T08:13:28.050Z,101294.60
2023-05-21T08:18:30.307Z,101290.40
2023-05-21T08:23:32.293Z,101288.20
2023-05-21T08:28:37.946Z,101281.20
2023-05-21T08:33:39.942Z,101278.60
2023-05-21T08:38:41.811Z,101271.40
2023-05-21T08:43:50.174Z,101268.00
2023-05-21T08:48:54.675Z,101266.20
2023-05-21T08:53:59.414Z,101265.20
2023-05-21T08:59:02.727Z,101264.80
2023-05-21T09:04:19.539Z,101259.60
2023-05-21T09:09:33.645Z,101261.60
2023-05-21T09:14:38.406Z,101267.60
2023-05-21T09:20:14.253Z,101265.00
2023-05-21T09:25:20.835Z,101256.60
2023-05-21T09:30:26.725Z,101252.00
2023-05-21T09:35:43.765Z,101253.20
2023-05-21T09:40:49.024Z,101250.60
2023-05-21T09:45:56.553Z,101256.00
2023-05-21T09:51:20.795Z,101254.20
2023-05-21T09:56:31.793Z,101246.20
2023-05-21T10:01:34.716Z,101241.20
2023-05-21T10:06:48.761Z,101231.80
2023-05-21T10:11:54.356Z,101229.80
2023-05-21T10:16:56.882Z,101227.00
2023-05-21T10:22:01.178Z,101228.40
2023-05-21T10:27:04.191Z,101226.60
2023-05-21T10:32:07.278Z,101230.80
2023-05-21T10:37:10.169Z,101221.20
2023-05-21T10:42:30.515Z,101220.80
2023-05-21T10:48:12.108Z,101214.60
2023-05-21T10:53:33.099Z,101206.80
2023-05-21T10:58:46.143Z,101213.20
2023-05-21T11:03:49.234Z,101204.60
2023-05-21T11:08:55.725Z,101197.20
2023-05-21T11:13:58.352Z,101192.00
2023-05-21T11:19:01.682Z,101195.80
2023-05-21T11:24:06.347Z,101192.00
2023-05-21T11:29:09.094Z,101191.00
2023-05-21T11:34:10.859Z,101185.20
2023-05-21T11:39:21.605Z,101190.00
2023-05-21T11:44:40.229Z,101184.00
2023-05-21T11:49:42.294Z,101181.80
2023-05-21T11:54:50.113Z,101177.60
2023-05-21T11:59:52.502Z,101170.00
2023-05-21T12:04:55.538Z,101173.40
2023-05-21T12:09:58.453Z,101177.20
2023-05-21T12:15:02.244Z,101171.80
2023-05-21T12:20:07.869Z,101169.20
2023-05-21T12:25:10.385Z,101167.20
2023-05-21T12:30:13.427Z,101167.40
2023-05-21T12:35:23.804Z,101165.20
2023-05-21T12:40:39.610Z,101162.20
2023-05-21T12:45:43.425Z,101158.80
2023-05-21T12:50:45.378Z,101151.20
2023-05-21T12:55:47.196Z,101152.00
2023-05-21T13:00:49.231Z,101154.20
2023-05-21T13:06:00.818Z,101148.40
2023-05-21T13:11:03.754Z,101142.80
2023-05-21T13:16:06.687Z,101139.80
2023-05-21T13:21:08.623Z,101138.20
2023-05-21T13:26:10.710Z,101135.00
2023-05-21T13:31:14.660Z,101127.60
2023-05-21T13:36:16.611Z,101120.60
2023-05-21T13:41:18.605Z,101118.60
2023-05-21T13:46:20.588Z,101112.60
2023-05-21T13:51:37.573Z,101109.20
2023-05-21T13:56:40.813Z,101110.80
2023-05-21T14:01:44.965Z,101101.40
2023-05-21T14:06:47.648Z,101094.60
2023-05-21T14:11:49.615Z,101090.40
2023-05-21T14:16:52.320Z,101089.20
2023-05-21T14:21:54.305Z,101090.60
2023-05-21T14:26:56.589Z,101088.20
2023-05-21T14:31:58.602Z,101087.60
2023-05-21T14:37:00.560Z,101085.20
2023-05-21T14:42:04.748Z,101087.60
2023-05-21T14:47:06.758Z,101083.80
2023-05-21T14:52:08.630Z,101080.60
2023-05-21T14:57:10.748Z,101075.60
2023-05-21T15:02:13.010Z,101072.40
2023-05-21T15:07:15.106Z,101067.40
2023-05-21T15:12:17.669Z,101071.60
2023-05-21T15:17:19.548Z,101058.20
2023-05-21T15:22:21.620Z,101065.00
2023-05-21T15:27:24.843Z,101065.80
2023-05-21T15:32:26.738Z,101060.00
2023-05-21T15:37:31.773Z,101060.40
2023-05-21T15:42:33.652Z,101060.00
2023-05-21T15:47:36.389Z,101057.40
2023-05-21T15:52:38.225Z,101055.80
2023-05-21T15:57:40.526Z,101055.80
2023-05-21T16:02:42.630Z,101053.80
2023-05-21T16:07:45.806Z,101053.40
2023-05-21T16:12:47.716Z,101043.20
2023-05-21T16:17:49.737Z,101041.00
2023-05-21T16:22:51.850Z,101036.40
2023-05-21T16:27:53.729Z,101036.20
2023-05-21T16:32:55.761Z,101032.80
2023-05-21T16:37:58.019Z,101041.20
2023-05-21T16:43:01.884Z,101042.40
2023-05-21T16:48:05.603Z,101038.60
2023-05-21T16:53:09.281Z,101037.40
2023-05-21T16:58:13.185Z,101037.20
2023-05-21T17:03:15.679Z,101039.00
2023-05-21T17:08:17.653Z,101044.60
2023-05-21T17:13:22.841Z,101045.00
2023-05-21T17:18:25.514Z,101042.60
2023-05-21T17:23:27.289Z,101044.20
2023-05-21T17:28:29.158Z,101044.40
2023-05-21T17:33:30.942Z,101039.80
2023-05-21T17:38:32.839Z,101036.80
2023-05-21T17:43:34.819Z,101038.80
2023-05-21T17:48:36.792Z,101037.60
2023-05-21T17:53:40.804Z,101042.20
2023-05-21T17:58:42.597Z,101034.20
2023-05-21T18:03:44.594Z,101037.40
2023-05-21T18:08:46.740Z,101038.00
2023-05-21T18:13:49.978Z,101039.60
2023-05-21T18:18:51.958Z,101043.60
2023-05-21T18:23:54.646Z,101045.00
2023-05-21T18:28:58.072Z,101053.20
2023-05-21T18:34:00.029Z,101052.60
2023-05-21T18:39:01.993Z,101060.00
2023-05-21T18:44:05.614Z,101065.20
2023-05-21T18:49:07.532Z,101064.80
2023-05-21T18:54:09.375Z,101066.60
2023-05-21T18:59:11.368Z,101072.40
2023-05-21T19:04:13.338Z,101070.20
2023-05-21T19:09:15.509Z,101071.00
2023-05-21T19:14:17.434Z,101072.60
2023-05-21T19:19:19.651Z,101071.20
2023-05-21T19:24:21.679Z,101075.40
2023-05-21T19:29:24.028Z,101079.20
2023-05-21T19:34:26.925Z,101082.40
2023-05-21T19:39:37.448Z,101081.00
2023-05-21T19:44:42.698Z,101075.80
2023-05-21T19:49:44.660Z,101067.80
2023-05-21T19:54:46.542Z,101067.60
2023-05-21T19:59:48.539Z,101061.00
2023-05-21T20:04:51.015Z,101062.60
2023-05-21T20:09:52.843Z,101055.60
2023-05-21T20:14:56.412Z,101058.40
2023-05-21T20:20:00.034Z,101051.80
2023-05-21T20:25:03.656Z,101054.40
2023-05-21T20:30:07.747Z,101051.80
2023-05-21T20:35:09.750Z,101056.60
2023-05-21T20:40:14.686Z,101059.20
2023-05-21T20:45:16.984Z,101070.20
2023-05-21T20:50:25.445Z,101074.80
2023-05-21T20:55:27.294Z,101080.60
2023-05-21T21:00:29.484Z,101082.00
2023-05-21T21:05:31.361Z,101083.20
2023-05-21T21:10:34.047Z,101084.00
2023-05-21T21:15:36.261Z,101086.00
2023-05-21T21:20:39.069Z,101086.80
2023-05-21T21:25:41.221Z,101083.40
2023-05-21T21:30:43.830Z,101080.20
2023-05-21T21:35:46.212Z,101079.80
2023-05-21T21:40:48.292Z,101081.20
2023-05-21T21:45:51.044Z,101080.20
2023-05-21T21:50:53.070Z,101080.40
2023-05-21T21:55:55.476Z,101082.60
2023-05-21T22:00:57.449Z,101084.60
2023-05-21T22:06:00.547Z,101084.60
2023-05-21T22:11:02.871Z,101079.40
2023-05-21T22:16:05.558Z,101081.80
2023-05-21T22:21:10.011Z,101078.80
2023-05-21T22:26:12.768Z,101080.20
2023-05-21T22:31:16.045Z,101074.40
2023-05-21T22:36:17.973Z,101072.20
2023-05-21T22:41:20.465Z,101075.40
2023-05-21T22:46:22.475Z,101069.60
2023-05-21T22:51:24.412Z,101067.80
2023-05-21T22:56:26.945Z,101064.00
2023-05-21T23:01:29.017Z,101061.20
2023-05-21T23:06:31.388Z,101062.60
2023-05-21T23:11:33.877Z,101059.40
2023-05-21T23:16:35.892Z,101058.60
2023-05-21T23:21:39.162Z,101049.20
2023-05-21T23:26:41.139Z,101050.60
2023-05-21T23:31:43.400Z,101052.40
2023-05-21T23:36:45.403Z,101045.40
2023-05-21T23:41:47.917Z,101048.20
2023-05-21T23:46:50.187Z,101053.60
2023-05-21T23:51:52.163Z,101056.00
2023-05-21T23:56:54.071Z,101053.00
